Time;durP1;ratioP1;P1;durP2;ratioP2;P2;SDS_P1;SDS_P2;PMS_P1;PMS_P2;Temp;Humidity;BMP_temperature;BMP_pressure;BME280_temperature;BME280_humidity;BME280_pressure;Samples;Min_cycle;Max_cycle;Signal;HPM_P1;HPM_P2
2023/11/19 09:26:30;;;;;;;4.05;1.42;;;;;;;;;;10615189;27;20368;-75
2023/11/19 09:33:09;;;;;;;9.27;1.85;;;;;;;;;;10545469;27;20357;-75
2023/11/19 09:38:13;;;;;;;6.45;1.83;;;;;;;;;;10449925;28;20037;-75
2023/11/19 09:43:17;;;;;;;7.45;1.88;;;;;;;;;;10456862;28;20091;-75
2023/11/19 09:48:22;;;;;;;10.77;2.08;;;;;;;;;;10465093;28;20091;-75
2023/11/19 09:53:26;;;;;;;10.00;2.92;;;;;;;;;;10454697;28;20053;-75
2023/11/19 09:58:29;;;;;;;9.63;2.17;;;;;;;;;;10409812;22;20074;-73
2023/11/19 10:03:37;;;;;;;13.57;2.60;;;;;;;;;;10389435;28;20037;-73
2023/11/19 10:08:42;;;;;;;16.65;2.80;;;;;;;;;;10385937;28;20639;-73
2023/11/19 10:13:47;;;;;;;6.43;1.85;;;;;;;;;;10389475;28;20046;-73
2023/11/19 10:18:52;;;;;;;8.35;2.13;;;;;;;;;;10380080;28;20398;-73
2023/11/19 10:23:59;;;;;;;7.38;2.72;;;;;;;;;;10391633;28;20144;-73
2023/11/19 10:29:03;;;;;;;12.73;2.58;;;;;;;;;;10386081;28;20121;-73
2023/11/19 10:34:26;;;;;;;12.38;2.80;;;;;;;;;;10384986;28;20116;-73
2023/11/19 10:39:54;;;;;;;10.20;2.58;;;;;;;;;;10394786;28;20542;-73
2023/11/19 10:44:57;;;;;;;9.50;2.67;;;;;;;;;;10354969;28;20048;-73
2023/11/19 10:50:02;;;;;;;8.30;2.05;;;;;;;;;;10353995;28;20046;-73
2023/11/19 10:55:09;;;;;;;12.55;2.30;;;;;;;;;;10355756;28;20037;-73
2023/11/19 11:00:18;;;;;;;13.70;2.67;;;;;;;;;;10368173;28;20034;-73
2023/11/19 11:05:23;;;;;;;13.80;3.38;;;;;;;;;;10365304;28;20400;-73
2023/11/19 11:10:29;;;;;;;8.73;2.92;;;;;;;;;;10361067;28;20060;-73
2023/11/19 11:15:33;;;;;;;11.93;2.63;;;;;;;;;;10363652;28;20112;-73
2023/11/19 11:20:38;;;;;;;13.45;2.70;;;;;;;;;;10356408;28;20122;-73
2023/11/19 11:25:49;;;;;;;12.32;2.97;;;;;;;;;;10368243;28;20113;-73
2023/11/19 11:31:09;;;;;;;14.18;3.03;;;;;;;;;;10362798;28;20057;-74
2023/11/19 11:36:19;;;;;;;13.70;3.35;;;;;;;;;;10356150;28;20304;-73
2023/11/19 11:41:23;;;;;;;14.27;2.72;;;;;;;;;;10352409;28;20050;-73
2023/11/19 11:46:56;;;;;;;7.80;2.17;;;;;;;;;;10351725;28;20065;-73
2023/11/19 11:52:03;;;;;;;9.45;2.40;;;;;;;;;;10358717;28;20045;-73
2023/11/19 11:57:11;;;;;;;10.60;2.25;;;;;;;;;;10363308;28;20050;-74
2023/11/19 12:02:17;;;;;;;14.80;2.83;;;;;;;;;;10359013;28;20069;-73
2023/11/19 12:07:23;;;;;;;9.00;2.13;;;;;;;;;;10362676;28;20138;-73
2023/11/19 12:12:29;;;;;;;8.50;2.10;;;;;;;;;;10363592;28;20475;-73
2023/11/19 12:17:50;;;;;;;6.07;2.03;;;;;;;;;;10352577;28;20053;-73
2023/11/19 12:22:55;;;;;;;7.18;2.30;;;;;;;;;;10359184;28;20057;-73
2023/11/19 12:27:59;;;;;;;10.48;2.45;;;;;;;;;;10358289;28;20096;-73
2023/11/19 12:33:10;;;;;;;7.63;2.08;;;;;;;;;;10355495;28;20533;-73
2023/11/19 12:38:21;;;;;;;5.53;1.60;;;;;;;;;;10358568;28;20061;-73
2023/11/19 12:43:25;;;;;;;6.28;2.53;;;;;;;;;;10360810;28;20136;-73
2023/11/19 12:48:28;;;;;;;9.27;2.35;;;;;;;;;;10352603;28;20056;-73
2023/11/19 12:53:48;;;;;;;9.52;2.20;;;;;;;;;;10361325;28;20125;-73
2023/11/19 12:58:52;;;;;;;9.18;1.70;;;;;;;;;;10357977;28;20048;-73
2023/11/19 13:03:55;;;;;;;10.38;2.35;;;;;;;;;;10357069;28;20447;-73
2023/11/19 13:09:00;;;;;;;7.18;1.33;;;;;;;;;;10354815;28;20125;-74
2023/11/19 13:14:04;;;;;;;11.13;2.15;;;;;;;;;;10359238;28;20052;-73
2023/11/19 13:19:08;;;;;;;8.90;2.42;;;;;;;;;;10357322;28;20136;-73
2023/11/19 13:24:13;;;;;;;14.00;2.45;;;;;;;;;;10355787;28;20039;-73
2023/11/19 13:29:16;;;;;;;5.28;1.77;;;;;;;;;;10351147;28;20142;-73
2023/11/19 13:34:20;;;;;;;7.15;2.03;;;;;;;;;;10360421;28;20046;-73
2023/11/19 13:39:24;;;;;;;9.80;2.42;;;;;;;;;;10351592;28;20125;-73
2023/11/19 13:44:27;;;;;;;4.85;1.83;;;;;;;;;;10358278;28;20050;-73
2023/11/19 13:49:31;;;;;;;10.18;2.47;;;;;;;;;;10351531;28;20069;-73
2023/11/19 13:54:36;;;;;;;6.55;1.92;;;;;;;;;;10358491;28;20148;-73
2023/11/19 13:59:41;;;;;;;5.80;1.45;;;;;;;;;;10353538;28;20089;-73
2023/11/19 14:04:44;;;;;;;8.97;2.00;;;;;;;;;;10350320;28;20046;-73
2023/11/19 14:09:50;;;;;;;9.10;2.08;;;;;;;;;;10356132;28;20078;-73
2023/11/19 14:14:54;;;;;;;9.20;2.30;;;;;;;;;;10350080;28;20125;-73
2023/11/19 14:19:57;;;;;;;8.05;1.90;;;;;;;;;;10362493;28;20387;-73
2023/11/19 14:25:02;;;;;;;7.97;1.95;;;;;;;;;;10362392;28;20112;-73
2023/11/19 14:30:07;;;;;;;11.10;2.63;;;;;;;;;;10360978;28;20053;-73
2023/11/19 14:35:10;;;;;;;9.93;2.17;;;;;;;;;;10360570;28;20034;-73
2023/11/19 14:40:15;;;;;;;7.60;1.90;;;;;;;;;;10358636;28;20621;-73
2023/11/19 14:45:18;;;;;;;13.00;2.45;;;;;;;;;;10361640;28;20066;-73
2023/11/19 14:50:22;;;;;;;7.80;2.00;;;;;;;;;;10361711;28;20558;-73
2023/11/19 14:55:27;;;;;;;9.02;2.85;;;;;;;;;;10359019;28;20121;-73
2023/11/19 15:00:31;;;;;;;9.35;2.25;;;;;;;;;;10357232;28;20073;-73
2023/11/19 15:05:36;;;;;;;6.72;1.80;;;;;;;;;;10360738;28;20046;-73
2023/11/19 15:10:43;;;;;;;9.75;2.70;;;;;;;;;;10349974;28;20038;-73
2023/11/19 15:15:46;;;;;;;9.82;2.30;;;;;;;;;;10350791;28;20046;-73
2023/11/19 15:20:50;;;;;;;10.55;2.35;;;;;;;;;;10358725;28;20744;-72
2023/11/19 15:25:55;;;;;;;8.02;2.25;;;;;;;;;;10362393;28;20096;-73
2023/11/19 15:30:58;;;;;;;6.93;2.30;;;;;;;;;;10362065;28;20133;-73
2023/11/19 15:36:03;;;;;;;7.85;2.20;;;;;;;;;;10350826;28;20157;-73
2023/11/19 15:41:08;;;;;;;6.40;2.15;;;;;;;;;;10363094;28;20108;-73
2023/11/19 15:46:12;;;;;;;10.50;2.28;;;;;;;;;;10358885;28;20070;-73
2023/11/19 15:51:16;;;;;;;11.70;2.22;;;;;;;;;;10361369;28;20637;-73
2023/11/19 15:56:21;;;;;;;7.32;2.10;;;;;;;;;;10356716;23;20061;-74
2023/11/19 16:01:24;;;;;;;8.05;2.60;;;;;;;;;;10334456;28;20685;-75
2023/11/19 16:06:27;;;;;;;6.70;1.95;;;;;;;;;;10291417;28;20066;-74
2023/11/19 16:11:32;;;;;;;9.63;2.17;;;;;;;;;;10292869;28;20492;-74
2023/11/19 16:16:38;;;;;;;9.18;2.45;;;;;;;;;;10303909;28;20089;-75
2023/11/19 16:21:41;;;;;;;6.53;2.10;;;;;;;;;;10297883;28;20525;-75
2023/11/19 16:26:46;;;;;;;12.18;3.00;;;;;;;;;;10287952;28;20046;-74
2023/11/19 16:31:50;;;;;;;5.35;2.05;;;;;;;;;;10293198;28;20051;-74
2023/11/19 16:36:54;;;;;;;7.57;2.08;;;;;;;;;;10300412;28;20042;-74
2023/11/19 16:41:59;;;;;;;10.82;2.75;;;;;;;;;;10288020;28;20071;-74
2023/11/19 16:47:03;;;;;;;11.88;2.15;;;;;;;;;;10286319;28;20043;-75
2023/11/19 16:52:07;;;;;;;8.30;2.03;;;;;;;;;;10291476;28;20534;-75
2023/11/19 16:57:12;;;;;;;5.68;1.95;;;;;;;;;;10292709;28;20619;-74
2023/11/19 17:02:15;;;;;;;6.97;2.03;;;;;;;;;;10295330;28;20034;-74
2023/11/19 17:07:19;;;;;;;5.70;1.65;;;;;;;;;;10286585;28;20053;-75
2023/11/19 17:12:24;;;;;;;9.32;2.35;;;;;;;;;;10303315;28;20169;-75
2023/11/19 17:17:33;;;;;;;9.65;2.25;;;;;;;;;;10298326;28;20381;-75
2023/11/19 17:22:38;;;;;;;8.10;2.33;;;;;;;;;;10300052;28;20042;-75
2023/11/19 17:27:43;;;;;;;6.70;2.28;;;;;;;;;;10290975;28;20058;-75
2023/11/19 17:32:46;;;;;;;6.47;2.00;;;;;;;;;;10301970;28;20470;-75
2023/11/19 17:37:50;;;;;;;9.10;2.22;;;;;;;;;;10277763;28;20112;-75
2023/11/19 17:42:54;;;;;;;13.40;3.45;;;;;;;;;;10301176;28;20066;-75
2023/11/19 17:47:58;;;;;;;9.10;2.60;;;;;;;;;;10297689;28;20042;-75
2023/11/19 17:53:02;;;;;;;6.90;2.22;;;;;;;;;;10305994;28;20073;-75
2023/11/19 17:58:10;;;;;;;10.32;2.67;;;;;;;;;;10302484;28;20134;-75
2023/11/19 18:03:13;;;;;;;7.70;2.53;;;;;;;;;;10312737;28;20078;-75
2023/11/19 18:08:21;;;;;;;8.23;1.90;;;;;;;;;;10307552;28;20034;-75
2023/11/19 18:13:26;;;;;;;8.35;1.98;;;;;;;;;;10310117;28;20070;-75
2023/11/19 18:18:29;;;;;;;7.53;2.22;;;;;;;;;;10303560;28;20480;-74
2023/11/19 18:23:32;;;;;;;9.82;2.47;;;;;;;;;;10304732;28;20042;-75
2023/11/19 18:28:37;;;;;;;8.57;2.20;;;;;;;;;;10300871;28;20480;-75
2023/11/19 18:33:41;;;;;;;10.57;2.53;;;;;;;;;;10296928;28;20042;-75
2023/11/19 18:38:44;;;;;;;8.63;2.78;;;;;;;;;;10285041;28;20537;-75
2023/11/19 18:43:50;;;;;;;9.23;2.60;;;;;;;;;;10311716;28;20093;-75
2023/11/19 18:48:53;;;;;;;7.15;1.70;;;;;;;;;;10295727;28;20089;-75
2023/11/19 18:53:57;;;;;;;8.63;2.90;;;;;;;;;;10295578;28;20432;-75
2023/11/19 18:59:03;;;;;;;13.38;2.50;;;;;;;;;;10300744;28;20435;-75
2023/11/19 19:04:07;;;;;;;11.82;2.80;;;;;;;;;;10294883;28;20031;-74
2023/11/19 19:09:11;;;;;;;10.43;2.75;;;;;;;;;;10301853;28;20126;-75
2023/11/19 19:14:16;;;;;;;9.23;2.95;;;;;;;;;;10297003;28;20035;-75
2023/11/19 19:19:19;;;;;;;10.07;2.25;;;;;;;;;;10300941;28;20085;-75
2023/11/19 19:24:22;;;;;;;7.97;2.00;;;;;;;;;;10290975;28;20700;-75
2023/11/19 19:29:27;;;;;;;14.70;3.60;;;;;;;;;;10291813;28;20045;-74
2023/11/19 19:34:30;;;;;;;11.35;2.53;;;;;;;;;;10295186;28;20546;-75
2023/11/19 19:39:33;;;;;;;11.10;2.63;;;;;;;;;;10296207;28;20156;-75
2023/11/19 19:44:38;;;;;;;14.68;3.00;;;;;;;;;;10297719;28;20038;-75
2023/11/19 19:49:42;;;;;;;10.95;2.40;;;;;;;;;;10298617;28;20106;-74
2023/11/19 19:54:45;;;;;;;12.55;3.35;;;;;;;;;;10294277;28;20040;-75
2023/11/19 19:59:50;;;;;;;13.23;3.35;;;;;;;;;;10295414;28;20084;-75
2023/11/19 20:04:55;;;;;;;7.72;2.70;;;;;;;;;;10309925;28;20574;-75
2023/11/19 20:10:00;;;;;;;15.07;2.70;;;;;;;;;;10287346;28;20503;-75
2023/11/19 20:15:07;;;;;;;13.63;2.92;;;;;;;;;;10284561;28;20057;-74
2023/11/19 20:20:12;;;;;;;9.40;2.85;;;;;;;;;;10290090;28;20050;-75
2023/11/19 20:25:16;;;;;;;11.18;2.70;;;;;;;;;;10281494;28;20101;-74
2023/11/19 20:30:21;;;;;;;12.43;2.38;;;;;;;;;;10294343;28;20043;-75
2023/11/19 20:35:24;;;;;;;10.15;2.95;;;;;;;;;;10276280;28;20106;-74
2023/11/19 20:40:28;;;;;;;10.77;2.72;;;;;;;;;;10283302;28;20081;-75
2023/11/19 20:45:32;;;;;;;8.85;2.58;;;;;;;;;;10296811;28;20656;-74
2023/11/19 20:50:36;;;;;;;9.02;2.85;;;;;;;;;;10302562;28;20038;-74
2023/11/19 20:55:39;;;;;;;10.18;2.58;;;;;;;;;;10288393;28;20041;-75
2023/11/19 21:00:46;;;;;;;8.05;2.03;;;;;;;;;;10287503;28;20129;-75
2023/11/19 21:05:54;;;;;;;8.05;2.00;;;;;;;;;;10269318;28;20071;-74
2023/11/19 21:10:57;;;;;;;12.90;2.40;;;;;;;;;;10280503;28;20126;-75
2023/11/19 21:16:03;;;;;;;9.52;2.45;;;;;;;;;;10273344;28;20502;-75
2023/11/19 21:21:07;;;;;;;9.23;2.90;;;;;;;;;;10280183;28;20052;-75
2023/11/19 21:26:11;;;;;;;10.00;2.70;;;;;;;;;;10281963;28;20114;-75
2023/11/19 21:31:17;;;;;;;10.43;2.42;;;;;;;;;;10280913;28;20065;-75
2023/11/19 21:36:21;;;;;;;10.00;3.00;;;;;;;;;;10283157;28;20127;-74
2023/11/19 21:41:24;;;;;;;10.50;2.80;;;;;;;;;;10273985;28;20050;-75
2023/11/19 21:46:29;;;;;;;10.23;2.67;;;;;;;;;;10289452;28;20074;-74
2023/11/19 21:51:32;;;;;;;10.50;2.72;;;;;;;;;;10288905;28;20051;-74
2023/11/19 21:56:36;;;;;;;11.10;2.55;;;;;;;;;;10397301;23;20130;-72
2023/11/19 22:01:41;;;;;;;12.13;2.75;;;;;;;;;;10329574;28;20057;-72
2023/11/19 22:06:44;;;;;;;11.05;2.42;;;;;;;;;;10331696;28;20156;-73
2023/11/19 22:11:47;;;;;;;14.18;2.85;;;;;;;;;;10315850;28;20042;-72
2023/11/19 22:16:52;;;;;;;8.68;2.22;;;;;;;;;;10329074;28;20038;-72
2023/11/19 22:21:55;;;;;;;10.98;2.33;;;;;;;;;;10314289;28;20496;-72
2023/11/19 22:26:59;;;;;;;7.72;1.92;;;;;;;;;;10305701;28;20491;-72
2023/11/19 22:32:04;;;;;;;9.40;2.40;;;;;;;;;;10325501;28;20093;-72
2023/11/19 22:37:07;;;;;;;6.80;1.88;;;;;;;;;;10331056;28;20394;-73
2023/11/19 22:42:11;;;;;;;11.82;2.70;;;;;;;;;;10326474;28;20046;-72
2023/11/19 22:47:15;;;;;;;8.20;2.28;;;;;;;;;;10315755;28;20044;-72
2023/11/19 22:52:19;;;;;;;13.50;2.30;;;;;;;;;;10323282;28;20042;-73
2023/11/19 22:57:22;;;;;;;7.28;2.25;;;;;;;;;;10322051;28;20525;-72
2023/11/19 23:02:29;;;;;;;10.52;2.35;;;;;;;;;;10324183;28;20050;-72
2023/11/19 23:07:32;;;;;;;8.38;2.35;;;;;;;;;;10318823;28;20050;-72
2023/11/19 23:12:36;;;;;;;8.18;2.22;;;;;;;;;;10316454;28;20043;-72
2023/11/19 23:17:41;;;;;;;9.80;1.70;;;;;;;;;;10317771;28;20133;-72
2023/11/19 23:22:46;;;;;;;6.43;1.80;;;;;;;;;;10310593;28;20051;-72
2023/11/19 23:27:49;;;;;;;8.68;1.83;;;;;;;;;;10312767;28;20049;-73
2023/11/19 23:32:54;;;;;;;8.07;2.00;;;;;;;;;;10314227;28;20648;-72
2023/11/19 23:37:57;;;;;;;9.45;2.30;;;;;;;;;;10313171;28;20034;-72
2023/11/19 23:43:00;;;;;;;8.70;1.98;;;;;;;;;;10308251;28;20483;-73
2023/11/19 23:48:06;;;;;;;3.53;1.80;;;;;;;;;;10307137;28;20071;-72
2023/11/19 23:53:11;;;;;;;8.88;2.42;;;;;;;;;;10312824;28;20046;-73
2023/11/19 23:58:14;;;;;;;6.60;1.90;;;;;;;;;;10324881;28;20062;-73
